Terminal Aerodrome Forecast
Issued by NWS

Home | Current Version | Previous Version | Text Only | Print | Product List | Glossary On
Versions: 1 2 3 4 5 6 7 8 9 10 11 12 13 14 15 16 17 18 19 20
000
FTUS46 KLOX 031700
TAFPRB
TAF
KPRB 031726Z 0318/0418 21008KT P6SM SKC
     FM032000 22015G25KT P6SM SKC
     FM040000 22012KT P6SM SKC
     FM040500 VRB03KT P6SM SKC
     FM040700 VRB03KT P6SM OVC010
     FM041000 VRB03KT P6SM OVC008=

USA.gov is the U.S. government's official web portal to all federal, state and local government web resources and services.